Umiak I — XJAR — position and weather

sailwx.info

Track history (hours):
 
Tides and Currents Weather Stations Pressure Air Temp Water Temp Dewpoint Dewpoint Depression Visibility Wind Speed Wind Dir Waves Ship Positions

Umiak I

Last reported at 2014-Sep-28 21:29 UTC. Time now 2014-Dec-20 03:03 UTC.
Position N 46°38' W 071°56'.
Warning: this ship's position is months out of date.

Length 188 m; draft 9 m.

Type: Ship. MMSI: 316013340.

Date/timePositionNaut miles runAvg speedWind from/ knotsBaromVisibWave heightAir tempDewpointWater temp
2014-Sep-28 21:29N 46°38' W 071°56'1313.9
2014-Sep-28 20:33N 46°32' W 072°12'1212.2
2014-Sep-28 19:33N 46°23' W 072°25'1111.0
2014-Sep-28 18:33N 46°16' W 072°37'1212.5
2014-Sep-28 17:33N 46°11' W 072°54'1612.2
2014-Sep-28 16:13N 46°00' W 073°11'913.0
2014-Sep-28 15:33N 45°52' W 073°16'1313.2
2014-Sep-28 14:33N 45°42' W 073°27'4 3.6
2014-Sep-28 13:31N 45°38' W 073°29'0 0.0
2014-Sep-28 12:31N 45°38' W 073°29'0 0.0
2014-Sep-28 11:28N 45°38' W 073°29'0 0.0
2014-Sep-28 10:28N 45°38' W 073°29'0 0.0
2014-Sep-28 09:31N 45°38' W 073°29'0 0.0
2014-Sep-28 08:31N 45°38' W 073°29'0 0.0
2014-Sep-28 07:31N 45°38' W 073°29'0 0.0
2014-Sep-28 06:31N 45°38' W 073°29'0 0.5
2014-Sep-28 05:33N 45°38' W 073°29'0 0.0
2014-Sep-28 04:33N 45°38' W 073°29'0 0.0
2014-Sep-28 03:33N 45°38' W 073°29'0 0.0
2014-Sep-28 02:33N 45°38' W 073°29'0 0.0
2014-Sep-28 01:33N 45°38' W 073°29'0 0.0
2014-Sep-28 00:33N 45°38' W 073°29'0 0.0
2014-Sep-27 23:33N 45°38' W 073°29'0 0.0
2014-Sep-27 22:33N 45°38' W 073°29'0 0.0
2014-Sep-27 21:33N 45°38' W 073°29'0 0.0
2014-Sep-27 20:33N 45°38' W 073°29'0 0.0
2014-Sep-27 19:33N 45°38' W 073°29'0 0.0
2014-Sep-27 18:33N 45°38' W 073°29'0 0.0
2014-Sep-27 17:33N 45°38' W 073°29'0 0.0
2014-Sep-27 16:33N 45°38' W 073°29'0 0.0
2014-Sep-27 15:33N 45°38' W 073°29'0 0.0
2014-Sep-27 14:33N 45°38' W 073°29'0 0.0
2014-Sep-27 13:33N 45°38' W 073°29'0 0.0
2014-Sep-27 12:33N 45°38' W 073°29'0 0.0
2014-Sep-27 11:33N 45°38' W 073°29'0 0.0
2014-Sep-27 10:33N 45°38' W 073°29'0 0.0
2014-Sep-27 09:33N 45°38' W 073°29'1 1.0
2014-Sep-27 08:33N 45°39' W 073°29'9 8.9
2014-Sep-27 07:33N 45°46' W 073°22'9 9.4
2014-Sep-27 06:33N 45°54' W 073°14'1010.3
2014-Sep-27 05:33N 46°03' W 073°08'10 9.7
2014-Sep-27 04:32N 46°09' W 072°57'1212.2
2014-Sep-27 03:33N 46°16' W 072°42'10 9.8
2014-Sep-27 02:33N 46°21' W 072°30'1110.9
2014-Sep-27 01:33N 46°26' W 072°17'1010.2
2014-Sep-27 00:33N 46°34' W 072°07'  
Track history (hours):
 
Tides and Currents Weather Stations Pressure Air Temp Water Temp Dewpoint Dewpoint Depression Visibility Wind Speed Wind Dir Waves Ship Positions

Umiak I

Last reported at 2014-Sep-28 21:29 UTC. Time now 2014-Dec-20 03:03 UTC.
Position N 46°38' W 071°56'.
Warning: this ship's position is months out of date.

Length 188 m; draft 9 m.

Type: Ship. MMSI: 316013340.

Date/timePositionNaut miles runAvg speedWind from/ knotsBaromVisibWave heightAir tempDewpointWater temp
2014-Sep-28 21:29N 46°38' W 071°56'1313.9
2014-Sep-28 20:33N 46°32' W 072°12'1212.2
2014-Sep-28 19:33N 46°23' W 072°25'1111.0
2014-Sep-28 18:33N 46°16' W 072°37'1212.5
2014-Sep-28 17:33N 46°11' W 072°54'1612.2
2014-Sep-28 16:13N 46°00' W 073°11'913.0
2014-Sep-28 15:33N 45°52' W 073°16'1313.2
2014-Sep-28 14:33N 45°42' W 073°27'4 3.6
2014-Sep-28 13:31N 45°38' W 073°29'0 0.0
2014-Sep-28 12:31N 45°38' W 073°29'0 0.0
2014-Sep-28 11:28N 45°38' W 073°29'0 0.0
2014-Sep-28 10:28N 45°38' W 073°29'0 0.0
2014-Sep-28 09:31N 45°38' W 073°29'0 0.0
2014-Sep-28 08:31N 45°38' W 073°29'0 0.0
2014-Sep-28 07:31N 45°38' W 073°29'0 0.0
2014-Sep-28 06:31N 45°38' W 073°29'0 0.5
2014-Sep-28 05:33N 45°38' W 073°29'0 0.0
2014-Sep-28 04:33N 45°38' W 073°29'0 0.0
2014-Sep-28 03:33N 45°38' W 073°29'0 0.0
2014-Sep-28 02:33N 45°38' W 073°29'0 0.0
2014-Sep-28 01:33N 45°38' W 073°29'0 0.0
2014-Sep-28 00:33N 45°38' W 073°29'0 0.0
2014-Sep-27 23:33N 45°38' W 073°29'0 0.0
2014-Sep-27 22:33N 45°38' W 073°29'0 0.0
2014-Sep-27 21:33N 45°38' W 073°29'0 0.0
2014-Sep-27 20:33N 45°38' W 073°29'0 0.0
2014-Sep-27 19:33N 45°38' W 073°29'0 0.0
2014-Sep-27 18:33N 45°38' W 073°29'0 0.0
2014-Sep-27 17:33N 45°38' W 073°29'0 0.0
2014-Sep-27 16:33N 45°38' W 073°29'0 0.0
2014-Sep-27 15:33N 45°38' W 073°29'0 0.0
2014-Sep-27 14:33N 45°38' W 073°29'0 0.0
2014-Sep-27 13:33N 45°38' W 073°29'0 0.0
2014-Sep-27 12:33N 45°38' W 073°29'0 0.0
2014-Sep-27 11:33N 45°38' W 073°29'0 0.0
2014-Sep-27 10:33N 45°38' W 073°29'0 0.0
2014-Sep-27 09:33N 45°38' W 073°29'1 1.0
2014-Sep-27 08:33N 45°39' W 073°29'9 8.9
2014-Sep-27 07:33N 45°46' W 073°22'9 9.4
2014-Sep-27 06:33N 45°54' W 073°14'1010.3
2014-Sep-27 05:33N 46°03' W 073°08'10 9.7
2014-Sep-27 04:32N 46°09' W 072°57'1212.2
2014-Sep-27 03:33N 46°16' W 072°42'10 9.8
2014-Sep-27 02:33N 46°21' W 072°30'1110.9
2014-Sep-27 01:33N 46°26' W 072°17'1010.2
2014-Sep-27 00:33N 46°34' W 072°07'  

Dump ship's entire track history